Time;durP1;ratioP1;P1;durP2;ratioP2;P2;SDS_P1;SDS_P2;PMS_P1;PMS_P2;Temp;Humidity;BMP_temperature;BMP_pressure;BME280_temperature;BME280_humidity;BME280_pressure;Samples;Min_cycle;Max_cycle;Signal;HPM_P1;HPM_P2
2023/08/09 00:02:09;;;;;;;17.00;4.03;;;27.40;99.90;;;;;;5018703;23;20453;-53
2023/08/09 00:04:35;;;;;;;13.93;4.60;;;27.50;99.90;;;;;;5011791;28;20025;-54
2023/08/09 00:07:00;;;;;;;21.77;4.78;;;27.50;99.90;;;;;;5010313;28;20402;-52
2023/08/09 00:09:26;;;;;;;12.77;3.78;;;27.40;99.90;;;;;;5011629;28;20019;-52
2023/08/09 00:11:52;;;;;;;21.27;4.38;;;27.50;99.90;;;;;;5010296;28;20044;-51
2023/08/09 00:14:17;;;;;;;22.75;5.00;;;27.40;99.90;;;;;;5011804;28;20030;-54
2023/08/09 00:16:43;;;;;;;16.75;5.45;;;27.40;99.90;;;;;;5011862;28;20034;-51
2023/08/09 00:19:09;;;;;;;19.85;4.30;;;27.40;99.90;;;;;;5015333;28;20447;-51
2023/08/09 00:21:36;;;;;;;28.80;4.70;;;27.40;99.90;;;;;;5015581;28;20490;-51
2023/08/09 00:24:03;;;;;;;17.98;5.07;;;27.40;99.90;;;;;;5015494;28;20018;-52
2023/08/09 00:26:29;;;;;;;16.05;5.75;;;27.40;99.90;;;;;;5015367;28;20092;-52
2023/08/09 00:28:55;;;;;;;18.75;4.95;;;27.40;99.90;;;;;;5015445;28;20071;-52
2023/08/09 00:31:21;;;;;;;18.65;4.43;;;27.30;99.90;;;;;;5015568;28;20397;-52
2023/08/09 00:33:47;;;;;;;20.33;4.93;;;27.30;99.90;;;;;;5015561;28;20089;-52
2023/08/09 00:36:13;;;;;;;18.63;4.15;;;27.40;99.90;;;;;;5015319;28;20053;-52
2023/08/09 00:38:39;;;;;;;15.40;4.13;;;27.30;99.90;;;;;;5015363;28;20025;-52
2023/08/09 00:41:04;;;;;;;21.63;5.10;;;27.40;99.90;;;;;;5013946;28;20474;-52
2023/08/09 00:43:30;;;;;;;24.67;5.93;;;27.40;99.90;;;;;;5015134;28;20029;-52
2023/08/09 00:45:56;;;;;;;20.85;4.18;;;27.40;99.90;;;;;;5015070;28;20034;-52
2023/08/09 00:48:23;;;;;;;20.17;4.90;;;27.40;99.90;;;;;;5015131;28;20033;-52
2023/08/09 00:50:48;;;;;;;15.83;4.77;;;27.30;99.90;;;;;;5015330;28;20084;-52
2023/08/09 00:53:16;;;;;;;12.73;4.47;;;27.40;99.90;;;;;;5014935;28;20651;-52
2023/08/09 00:55:42;;;;;;;18.08;6.32;;;27.30;99.90;;;;;;5014796;28;20022;-52
2023/08/09 00:58:08;;;;;;;22.48;4.22;;;27.30;99.90;;;;;;5014806;28;20092;-52
2023/08/09 01:00:34;;;;;;;20.80;4.97;;;27.30;99.90;;;;;;5025341;23;20018;-53
2023/08/09 01:03:00;;;;;;;21.77;4.78;;;27.30;99.90;;;;;;4993950;28;20066;-53
2023/08/09 01:05:44;;;;;;;19.75;4.65;;;27.30;99.90;;;;;;4995131;28;20081;-52
2023/08/09 01:08:19;;;;;;;22.42;4.22;;;27.30;99.90;;;;;;4995127;28;20022;-52
2023/08/09 01:10:56;;;;;;;14.75;3.80;;;27.30;99.90;;;;;;4995064;28;20019;-52
2023/08/09 01:13:22;;;;;;;18.67;4.75;;;27.20;99.90;;;;;;4995235;28;20041;-52
2023/08/09 01:15:50;;;;;;;14.32;3.75;;;27.20;99.90;;;;;;4995184;28;20580;-52
2023/08/09 01:18:16;;;;;;;18.85;4.00;;;27.20;99.90;;;;;;4993635;28;20391;-53
2023/08/09 01:20:44;;;;;;;15.30;5.05;;;27.20;99.90;;;;;;4994845;28;20026;-52
2023/08/09 01:23:19;;;;;;;15.40;3.30;;;27.20;99.90;;;;;;4993486;28;20033;-53
2023/08/09 01:25:44;;;;;;;13.70;3.95;;;27.20;99.90;;;;;;4993455;28;20045;-53
2023/08/09 01:28:10;;;;;;;15.98;4.30;;;27.20;99.90;;;;;;4994423;28;20030;-53
2023/08/09 01:30:39;;;;;;;15.63;4.43;;;27.20;99.90;;;;;;4994772;28;20076;-52
2023/08/09 01:33:05;;;;;;;18.63;5.75;;;27.20;99.90;;;;;;4994657;28;20060;-53
2023/08/09 01:35:38;;;;;;;20.48;4.88;;;27.20;99.90;;;;;;4994750;28;20073;-53
2023/08/09 01:38:13;;;;;;;15.10;3.65;;;27.20;99.90;;;;;;4994634;28;20101;-52
2023/08/09 01:40:39;;;;;;;16.90;3.72;;;27.20;99.90;;;;;;4994559;28;20026;-52
2023/08/09 01:43:06;;;;;;;13.23;4.40;;;27.20;99.90;;;;;;4994489;28;20057;-53
2023/08/09 01:45:32;;;;;;;20.20;4.72;;;27.20;99.90;;;;;;4994212;28;20065;-52
2023/08/09 01:47:58;;;;;;;11.25;4.25;;;27.20;99.90;;;;;;4993139;28;20421;-52
2023/08/09 01:50:29;;;;;;;15.35;4.18;;;27.10;99.90;;;;;;4994693;28;20116;-53
2023/08/09 01:52:55;;;;;;;14.40;5.13;;;27.10;99.90;;;;;;4993147;28;20033;-52
2023/08/09 01:55:24;;;;;;;15.55;3.35;;;27.10;99.90;;;;;;4994620;28;20034;-53
2023/08/09 01:57:49;;;;;;;18.33;4.13;;;27.10;99.90;;;;;;4994178;28;20050;-52
2023/08/09 02:02:51;;;;;;;16.50;4.18;;;27.10;99.90;;;;;;4993371;28;20096;-51
2023/08/09 02:05:19;;;;;;;20.60;5.60;;;27.20;99.90;;;;;;4994243;28;20443;-50
2023/08/09 02:07:45;;;;;;;21.73;4.70;;;27.10;99.90;;;;;;4994416;28;20100;-50
2023/08/09 02:10:11;;;;;;;13.10;3.55;;;27.10;99.90;;;;;;4994512;28;20034;-50
2023/08/09 02:12:38;;;;;;;18.13;4.75;;;27.10;99.90;;;;;;4992827;28;20161;-50
2023/08/09 02:15:05;;;;;;;22.35;5.28;;;27.10;99.90;;;;;;4992916;28;20116;-50
2023/08/09 02:17:31;;;;;;;17.33;4.38;;;27.20;99.90;;;;;;4994037;28;20471;-49
2023/08/09 02:19:58;;;;;;;23.83;5.25;;;27.10;99.90;;;;;;4994074;28;20037;-50
2023/08/09 02:22:25;;;;;;;14.45;4.85;;;27.10;99.90;;;;;;4994280;28;20110;-50
2023/08/09 02:24:51;;;;;;;15.95;4.90;;;27.10;99.90;;;;;;4992871;28;20046;-50
2023/08/09 02:27:17;;;;;;;23.17;5.28;;;27.10;99.90;;;;;;4993931;28;20042;-50
2023/08/09 02:29:43;;;;;;;22.05;5.82;;;27.00;99.90;;;;;;4993991;28;20026;-50
2023/08/09 02:32:09;;;;;;;26.10;6.00;;;27.00;99.90;;;;;;4993936;28;20088;-50
2023/08/09 02:34:34;;;;;;;28.65;5.03;;;27.00;99.90;;;;;;4993889;28;20063;-50
2023/08/09 02:37:00;;;;;;;21.05;5.15;;;27.00;99.90;;;;;;4993789;28;20026;-50
2023/08/09 02:39:26;;;;;;;21.45;6.45;;;27.00;99.90;;;;;;4993927;28;20056;-50
2023/08/09 02:41:52;;;;;;;25.25;6.82;;;26.90;99.90;;;;;;4993169;28;20026;-50
2023/08/09 02:44:18;;;;;;;19.50;5.28;;;26.90;99.90;;;;;;4991954;28;20267;-50
2023/08/09 02:46:44;;;;;;;20.10;5.22;;;26.90;99.90;;;;;;4993058;28;20034;-51
2023/08/09 02:49:10;;;;;;;12.98;4.50;;;26.90;99.90;;;;;;4992128;28;20094;-51
2023/08/09 02:51:35;;;;;;;18.73;4.68;;;26.90;99.90;;;;;;4993166;28;20490;-52
2023/08/09 02:54:03;;;;;;;16.17;4.38;;;26.90;99.90;;;;;;4993225;28;20451;-51
2023/08/09 02:56:29;;;;;;;18.13;4.55;;;26.90;99.90;;;;;;4993081;28;20031;-52
2023/08/09 02:58:56;;;;;;;17.58;4.57;;;26.80;99.90;;;;;;4991946;28;20066;-51
2023/08/09 03:01:23;;;;;;;19.17;5.70;;;26.80;99.90;;;;;;5011238;23;20057;-51
2023/08/09 03:03:50;;;;;;;19.70;5.05;;;26.80;99.90;;;;;;5011986;28;20078;-51
2023/08/09 03:06:17;;;;;;;15.68;4.40;;;26.80;99.90;;;;;;5013078;28;20057;-54
2023/08/09 03:08:46;;;;;;;;;;;26.80;99.90;;;;;;5013134;28;20022;-52
2023/08/09 03:11:12;;;;;;;24.23;5.45;;;26.80;99.90;;;;;;5027716;28;20242;-51
2023/08/09 03:13:38;;;;;;;17.13;4.53;;;26.80;99.90;;;;;;5012554;28;20032;-51
2023/08/09 03:16:04;;;;;;;15.00;5.57;;;26.80;99.90;;;;;;5012447;28;20400;-54
2023/08/09 03:18:30;;;;;;;24.00;5.15;;;26.80;99.90;;;;;;5013016;28;20481;-54
2023/08/09 03:20:55;;;;;;;18.80;4.90;;;26.80;99.90;;;;;;5012659;28;20028;-53
2023/08/09 03:23:21;;;;;;;12.23;3.92;;;26.80;99.90;;;;;;5012373;28;20029;-51
2023/08/09 03:25:47;;;;;;;18.23;5.00;;;26.80;99.90;;;;;;5012288;28;20030;-54
2023/08/09 03:28:13;;;;;;;12.35;4.05;;;26.90;99.90;;;;;;5011562;28;20382;-53
2023/08/09 03:30:38;;;;;;;15.77;4.97;;;26.80;99.90;;;;;;5012367;28;20029;-51
2023/08/09 03:33:04;;;;;;;13.77;3.95;;;26.90;99.90;;;;;;5012398;28;20034;-54
2023/08/09 03:35:30;;;;;;;14.95;4.75;;;26.90;99.90;;;;;;5012563;28;20084;-54
2023/08/09 03:37:58;;;;;;;13.18;3.95;;;26.80;99.90;;;;;;5012386;28;20025;-53
2023/08/09 03:40:23;;;;;;;21.52;3.97;;;26.80;99.90;;;;;;5012216;28;20033;-51
2023/08/09 03:42:49;;;;;;;17.90;4.35;;;26.80;99.90;;;;;;5012056;28;20034;-51
2023/08/09 03:45:17;;;;;;;14.10;4.13;;;26.80;99.90;;;;;;5012054;28;20053;-51
2023/08/09 03:47:43;;;;;;;14.73;3.95;;;26.80;99.90;;;;;;5012088;28;20488;-51
2023/08/09 03:50:10;;;;;;;9.57;2.90;;;26.80;99.90;;;;;;5011978;28;20029;-52
2023/08/09 03:52:36;;;;;;;11.07;3.03;;;26.80;99.90;;;;;;5011932;28;20026;-51
2023/08/09 03:55:03;;;;;;;11.40;4.78;;;26.80;99.90;;;;;;5012332;28;20077;-52
2023/08/09 03:57:28;;;;;;;11.25;3.85;;;26.80;99.90;;;;;;5012316;28;20026;-51
2023/08/09 03:59:55;;;;;;;15.00;3.88;;;26.80;99.90;;;;;;5011916;28;20183;-52
2023/08/09 04:02:21;;;;;;;15.02;3.40;;;26.80;99.90;;;;;;5012271;28;20444;-52
2023/08/09 04:04:47;;;;;;;12.82;3.65;;;26.80;99.90;;;;;;5011948;28;20045;-51
2023/08/09 04:07:13;;;;;;;12.00;3.38;;;26.80;99.90;;;;;;5011815;28;20481;-52
2023/08/09 04:09:39;;;;;;;13.68;4.05;;;26.80;99.90;;;;;;5010420;28;20030;-52
2023/08/09 04:12:05;;;;;;;14.82;3.20;;;26.80;99.90;;;;;;5010811;28;20270;-51
2023/08/09 04:14:32;;;;;;;10.85;3.60;;;26.80;99.90;;;;;;5010919;28;20113;-52
2023/08/09 04:16:57;;;;;;;10.60;3.28;;;26.80;99.90;;;;;;5011780;28;20030;-51
2023/08/09 04:19:26;;;;;;;9.73;3.78;;;26.80;99.90;;;;;;5011806;28;20026;-51
2023/08/09 04:21:53;;;;;;;15.88;3.25;;;26.80;99.90;;;;;;5011680;28;20084;-52
2023/08/09 04:24:19;;;;;;;12.70;4.27;;;26.80;99.90;;;;;;5011676;28;20026;-51
2023/08/09 04:26:45;;;;;;;15.73;3.70;;;26.80;99.90;;;;;;5011583;28;20034;-50
2023/08/09 04:29:11;;;;;;;11.25;2.95;;;26.80;99.90;;;;;;5012195;28;20032;-51
2023/08/09 04:31:37;;;;;;;12.50;2.83;;;26.90;99.90;;;;;;5011721;28;20113;-51
2023/08/09 04:34:03;;;;;;;16.05;3.22;;;26.90;99.90;;;;;;5011924;28;20021;-51
2023/08/09 04:36:31;;;;;;;15.13;3.13;;;26.90;99.90;;;;;;5011596;28;20026;-51
2023/08/09 04:38:57;;;;;;;11.18;3.90;;;26.90;99.90;;;;;;5011603;28;20018;-50
2023/08/09 04:41:24;;;;;;;13.00;3.37;;;27.00;99.90;;;;;;5010328;28;20034;-50
2023/08/09 04:43:50;;;;;;;15.77;3.58;;;27.00;99.90;;;;;;5011456;28;20018;-51
2023/08/09 04:46:16;;;;;;;22.35;3.72;;;27.10;99.90;;;;;;5011474;28;20073;-51
2023/08/09 04:48:43;;;;;;;16.58;3.17;;;27.10;99.90;;;;;;5011349;28;20152;-51
2023/08/09 04:51:10;;;;;;;16.08;3.55;;;27.10;99.90;;;;;;5011415;28;20061;-51
2023/08/09 04:53:36;;;;;;;21.27;3.73;;;27.20;99.90;;;;;;5011742;28;20032;-51
2023/08/09 04:56:03;;;;;;;14.35;3.35;;;27.20;99.90;;;;;;5011631;28;20097;-51
2023/08/09 04:58:30;;;;;;;14.73;3.87;;;27.20;99.90;;;;;;5010434;28;20450;-51
2023/08/09 05:00:56;;;;;;;15.65;4.32;;;27.20;99.90;;;;;;5016530;28;20041;-51
2023/08/09 05:03:22;;;;;;;19.05;4.38;;;27.30;99.90;;;;;;5031623;28;20071;-51
2023/08/09 05:05:48;;;;;;;15.57;3.97;;;27.30;99.90;;;;;;5034598;28;20033;-51
2023/08/09 05:08:14;;;;;;;21.05;5.10;;;27.30;99.90;;;;;;5034568;28;20053;-51
2023/08/09 05:10:39;;;;;;;18.13;4.00;;;27.40;99.90;;;;;;5034569;28;20096;-51
2023/08/09 05:13:05;;;;;;;13.82;3.58;;;27.40;99.90;;;;;;5034022;28;20101;-51
2023/08/09 05:15:31;;;;;;;19.00;4.18;;;27.40;99.90;;;;;;5034620;28;20132;-51
2023/08/09 05:17:57;;;;;;;13.45;4.43;;;27.50;99.90;;;;;;5034369;28;20432;-51
2023/08/09 05:20:22;;;;;;;16.40;7.20;;;27.50;99.90;;;;;;5034380;28;20465;-51
2023/08/09 05:22:50;;;;;;;16.63;4.72;;;27.50;99.90;;;;;;5034389;28;20026;-51
2023/08/09 05:25:16;;;;;;;16.08;5.35;;;27.50;99.90;;;;;;5034236;28;20426;-51
2023/08/09 05:27:47;;;;;;;17.23;5.55;;;27.50;99.90;;;;;;5034312;28;20025;-51
2023/08/09 05:30:13;;;;;;;16.40;5.07;;;27.50;99.90;;;;;;5034295;28;20035;-51
2023/08/09 05:32:39;;;;;;;12.00;4.10;;;27.50;99.90;;;;;;5034197;28;20045;-52
2023/08/09 05:35:05;;;;;;;13.60;3.90;;;27.50;99.90;;;;;;5034313;28;20025;-51
2023/08/09 05:37:31;;;;;;;12.23;3.53;;;27.50;99.90;;;;;;5034148;28;20021;-51
2023/08/09 05:39:57;;;;;;;15.88;5.78;;;27.50;99.90;;;;;;5033996;28;20049;-51
2023/08/09 05:42:23;;;;;;;18.25;4.63;;;27.50;99.90;;;;;;5034000;28;20028;-51
2023/08/09 05:44:49;;;;;;;17.65;4.35;;;27.50;99.90;;;;;;5033830;28;20037;-51
2023/08/09 05:47:15;;;;;;;18.77;6.22;;;27.50;99.90;;;;;;5033723;28;20041;-51
2023/08/09 05:49:41;;;;;;;13.95;4.03;;;27.50;99.90;;;;;;5033795;28;20032;-51
2023/08/09 05:52:07;;;;;;;14.68;4.78;;;27.50;99.90;;;;;;5033997;28;20527;-51
2023/08/09 05:54:33;;;;;;;14.13;4.53;;;27.50;99.90;;;;;;5033801;28;20026;-51
2023/08/09 05:57:00;;;;;;;20.13;4.88;;;27.50;99.90;;;;;;5033649;28;20033;-51
2023/08/09 05:59:26;;;;;;;20.45;5.18;;;27.50;99.90;;;;;;5033610;28;20028;-52
2023/08/09 06:01:52;;;;;;;14.40;3.33;;;27.50;99.90;;;;;;5033185;28;20049;-51
2023/08/09 06:04:18;;;;;;;20.38;5.00;;;27.60;99.90;;;;;;5032216;28;20108;-51
2023/08/09 06:06:45;;;;;;;12.73;3.88;;;27.50;99.90;;;;;;5033497;28;20034;-51
2023/08/09 06:09:10;;;;;;;17.30;3.97;;;27.50;99.90;;;;;;5033721;28;20100;-51
2023/08/09 06:11:36;;;;;;;16.73;5.43;;;27.50;99.90;;;;;;5033704;28;20461;-51
2023/08/09 06:14:03;;;;;;;21.55;7.60;;;27.60;99.90;;;;;;5033282;28;20021;-51
2023/08/09 06:16:29;;;;;;;19.60;7.00;;;27.60;99.90;;;;;;5032260;28;20029;-51
2023/08/09 06:18:55;;;;;;;16.80;4.80;;;27.60;99.90;;;;;;5033384;28;20037;-51
2023/08/09 06:21:20;;;;;;;15.98;4.80;;;27.60;99.90;;;;;;5033475;28;20033;-51
2023/08/09 06:23:46;;;;;;;18.45;4.85;;;27.60;99.90;;;;;;5033237;28;20142;-51
2023/08/09 06:26:12;;;;;;;18.35;4.68;;;27.60;99.90;;;;;;5020654;28;20056;-52
2023/08/09 06:28:38;;;;;;;13.43;4.43;;;27.60;99.90;;;;;;4992912;28;20367;-52
2023/08/09 06:31:04;;;;;;;18.47;4.97;;;27.60;99.90;;;;;;4992088;28;20022;-50
2023/08/09 06:33:30;;;;;;;21.30;4.50;;;27.70;99.90;;;;;;5006140;28;20367;-51
2023/08/09 06:35:56;;;;;;;15.02;7.70;;;27.70;99.90;;;;;;5012780;28;20030;-51
2023/08/09 06:38:22;;;;;;;24.27;9.40;;;27.70;99.90;;;;;;5013192;28;20018;-51
2023/08/09 06:40:47;;;;;;;19.90;6.07;;;27.70;99.90;;;;;;5013286;28;20501;-52
2023/08/09 06:43:13;;;;;;;18.63;6.65;;;27.70;99.90;;;;;;5013007;28;20379;-51
2023/08/09 06:45:39;;;;;;;21.63;9.40;;;27.70;99.90;;;;;;5012754;28;20084;-50
2023/08/09 06:48:07;;;;;;;20.20;7.60;;;27.70;99.90;;;;;;5013091;28;20040;-51
2023/08/09 06:50:33;;;;;;;21.35;5.22;;;27.70;99.90;;;;;;5013068;28;20108;-51
2023/08/09 06:52:59;;;;;;;20.23;6.43;;;27.70;99.90;;;;;;5012980;28;20030;-51
2023/08/09 06:55:25;;;;;;;22.23;5.72;;;27.80;99.90;;;;;;5012794;28;20099;-51
2023/08/09 06:57:51;;;;;;;18.83;5.45;;;27.80;99.90;;;;;;5011480;28;20022;-51
2023/08/09 07:00:17;;;;;;;25.58;5.50;;;27.80;99.90;;;;;;5012784;28;20168;-52
2023/08/09 07:02:45;;;;;;;27.23;7.18;;;27.80;99.90;;;;;;5012891;28;20053;-51
2023/08/09 07:05:15;;;;;;;27.15;5.80;;;27.80;99.90;;;;;;5012921;28;20381;-51
2023/08/09 07:07:45;;;;;;;19.55;5.85;;;27.80;99.90;;;;;;5013000;28;20038;-51
2023/08/09 07:10:12;;;;;;;21.55;6.15;;;27.80;99.90;;;;;;5012999;28;20014;-51
2023/08/09 07:12:38;;;;;;;26.60;5.32;;;27.80;99.90;;;;;;5011184;28;20527;-51
2023/08/09 07:15:08;;;;;;;28.70;6.13;;;27.80;99.90;;;;;;5012452;28;20034;-51
2023/08/09 07:17:35;;;;;;;27.92;7.88;;;27.90;99.90;;;;;;5012355;28;20018;-52
2023/08/09 07:20:01;;;;;;;21.00;5.22;;;27.90;99.90;;;;;;5012466;28;20029;-51
2023/08/09 07:22:27;;;;;;;18.00;4.68;;;27.90;99.90;;;;;;5012376;28;20041;-52
2023/08/09 07:24:53;;;;;;;29.45;7.05;;;27.90;99.90;;;;;;5012098;28;20030;-52
2023/08/09 07:27:19;;;;;;;19.60;5.05;;;28.00;99.90;;;;;;5011987;28;20038;-52
2023/08/09 07:29:44;;;;;;;15.80;4.18;;;28.00;99.90;;;;;;5012576;28;20021;-52
2023/08/09 07:32:10;;;;;;;20.67;4.80;;;28.00;99.90;;;;;;5012112;28;20032;-52
2023/08/09 07:34:36;;;;;;;18.67;5.15;;;28.00;99.90;;;;;;5012251;28;20114;-52
2023/08/09 07:37:02;;;;;;;20.00;8.40;;;28.00;99.90;;;;;;5012045;28;20022;-52
2023/08/09 07:39:28;;;;;;;21.80;5.55;;;28.00;99.90;;;;;;5012044;28;20382;-52
2023/08/09 07:41:54;;;;;;;23.73;5.65;;;28.00;99.90;;;;;;5012061;28;20029;-51
2023/08/09 07:44:20;;;;;;;21.10;4.65;;;28.00;99.90;;;;;;5012023;28;20105;-52
2023/08/09 07:46:46;;;;;;;11.32;3.92;;;28.00;99.90;;;;;;5012174;28;20518;-52
2023/08/09 07:49:12;;;;;;;20.25;5.30;;;28.00;99.90;;;;;;5012036;28;20054;-52
2023/08/09 07:51:37;;;;;;;14.02;4.30;;;28.00;99.90;;;;;;5012131;28;20101;-52
2023/08/09 07:54:03;;;;;;;15.73;4.38;;;28.00;99.90;;;;;;5012087;28;20033;-52
2023/08/09 07:56:29;;;;;;;14.00;3.50;;;28.00;99.90;;;;;;5011981;28;20029;-52
2023/08/09 07:58:55;;;;;;;14.18;3.58;;;28.00;99.90;;;;;;5011829;28;20358;-52
2023/08/09 08:01:21;;;;;;;15.77;4.05;;;27.90;99.90;;;;;;5011639;28;20050;-52
2023/08/09 08:03:46;;;;;;;12.25;4.07;;;28.00;99.90;;;;;;5012063;28;20030;-52
2023/08/09 08:06:12;;;;;;;17.48;7.05;;;28.00;99.90;;;;;;5011831;28;20040;-52
2023/08/09 08:08:39;;;;;;;17.10;4.88;;;28.00;99.90;;;;;;5011794;28;20041;-52
2023/08/09 08:11:05;;;;;;;14.93;4.90;;;28.00;99.90;;;;;;5011871;28;20022;-52
2023/08/09 08:13:30;;;;;;;15.57;6.38;;;28.00;99.90;;;;;;5011819;28;20014;-52
2023/08/09 08:15:56;;;;;;;24.27;9.57;;;28.10;99.90;;;;;;5011924;28;20049;-51
2023/08/09 08:18:22;;;;;;;19.80;7.05;;;28.10;99.90;;;;;;5011786;28;20038;-51
2023/08/09 08:20:48;;;;;;;13.13;4.95;;;28.10;99.90;;;;;;5012086;28;20093;-52
2023/08/09 08:23:13;;;;;;;24.63;10.25;;;28.10;99.90;;;;;;5011603;28;20033;-52
2023/08/09 08:25:39;;;;;;;12.10;5.00;;;28.10;99.90;;;;;;5011485;28;20039;-52
2023/08/09 08:28:05;;;;;;;18.48;6.45;;;28.20;99.90;;;;;;5011676;28;20029;-52
2023/08/09 08:30:31;;;;;;;19.73;7.70;;;28.20;99.90;;;;;;5011835;28;20060;-52
2023/08/09 08:32:57;;;;;;;21.70;8.48;;;28.20;99.90;;;;;;5011649;28;20030;-52
2023/08/09 08:35:24;;;;;;;14.43;6.30;;;28.30;99.90;;;;;;5011561;28;20049;-52
2023/08/09 08:37:53;;;;;;;17.88;6.03;;;28.30;99.90;;;;;;5011836;28;20022;-52
2023/08/09 08:40:20;;;;;;;36.97;9.70;;;28.30;99.90;;;;;;5015462;28;20092;-51
2023/08/09 08:42:48;;;;;;;19.17;5.28;;;28.40;99.90;;;;;;5015752;28;20045;-51
2023/08/09 08:45:15;;;;;;;14.25;4.57;;;28.40;99.90;;;;;;5015375;28;20469;-51
2023/08/09 08:47:42;;;;;;;;;;;28.40;99.90;;;;;;5015659;28;20041;-52
2023/08/09 08:50:09;;;;;;;18.08;3.72;;;28.50;99.90;;;;;;5015349;28;20328;-52
2023/08/09 08:52:39;;;;;;;16.85;3.72;;;28.50;99.90;;;;;;5015131;28;20042;-52
2023/08/09 08:55:06;;;;;;;12.32;3.95;;;28.50;99.90;;;;;;5015191;28;20101;-52
2023/08/09 08:57:33;;;;;;;15.70;3.60;;;28.50;99.90;;;;;;5015143;28;20045;-52
2023/08/09 09:00:03;;;;;;;16.13;4.53;;;28.60;99.90;;;;;;5015062;28;20029;-52
2023/08/09 09:02:29;;;;;;;18.77;4.63;;;28.60;99.90;;;;;;5014869;28;20050;-52
2023/08/09 09:04:54;;;;;;;10.63;3.95;;;28.60;99.90;;;;;;5015559;28;20022;-52
2023/08/09 09:07:20;;;;;;;15.82;4.78;;;28.60;99.90;;;;;;5015137;28;20029;-52
2023/08/09 09:09:59;;;;;;;17.58;4.53;;;28.60;99.90;;;;;;5014792;28;20478;-52
2023/08/09 09:12:25;;;;;;;21.45;5.15;;;28.70;99.90;;;;;;5014804;28;20030;-52
2023/08/09 09:14:54;;;;;;;15.95;5.68;;;28.70;99.90;;;;;;5014906;28;20105;-52
2023/08/09 09:17:21;;;;;;;16.83;4.95;;;28.80;99.90;;;;;;5014986;28;20029;-52
2023/08/09 09:19:47;;;;;;;15.77;4.43;;;28.80;99.90;;;;;;5014711;28;20022;-52
2023/08/09 09:22:34;;;;;;;12.80;3.70;;;28.80;99.90;;;;;;5014575;28;20263;-52
2023/08/09 09:25:01;;;;;;;13.02;3.85;;;28.80;99.90;;;;;;5014553;28;20041;-52
2023/08/09 09:27:31;;;;;;;24.67;4.88;;;28.90;99.90;;;;;;5014451;28;20042;-52
2023/08/09 09:30:21;;;;;;;15.85;4.97;;;28.90;99.90;;;;;;5013177;28;20477;-52
2023/08/09 09:33:05;;;;;;;14.52;4.63;;;28.90;99.90;;;;;;5014372;28;20025;-52
2023/08/09 09:35:32;;;;;;;16.33;4.93;;;28.90;99.90;;;;;;5014347;28;20418;-52
2023/08/09 09:37:59;;;;;;;;;;;29.00;99.90;;;;;;5014756;28;20079;-52
2023/08/09 09:40:27;;;;;;;14.45;4.03;;;29.00;99.90;;;;;;5014265;28;19997;-52
2023/08/09 09:42:54;;;;;;;21.08;5.10;;;29.00;99.90;;;;;;5014444;28;20038;-52
2023/08/09 09:45:28;;;;;;;17.77;4.47;;;29.00;99.90;;;;;;5014352;28;20462;-51
2023/08/09 09:47:57;;;;;;;17.33;4.18;;;29.10;99.90;;;;;;5010240;28;20081;-52
2023/08/09 09:50:25;;;;;;;12.25;3.53;;;29.10;99.90;;;;;;4997090;28;20026;-52
2023/08/09 09:52:54;;;;;;;18.83;5.05;;;29.10;99.90;;;;;;5007464;28;20026;-52
2023/08/09 09:55:25;;;;;;;13.45;4.47;;;29.10;99.90;;;;;;5013709;28;20022;-52
2023/08/09 09:57:52;;;;;;;17.50;4.68;;;29.10;99.90;;;;;;5013971;28;20021;-53
2023/08/09 10:00:22;;;;;;;14.65;3.95;;;29.10;99.90;;;;;;5012903;28;20041;-52
2023/08/09 10:02:49;;;;;;;16.13;4.20;;;29.10;99.90;;;;;;5012660;28;20037;-53
2023/08/09 10:05:17;;;;;;;;;;;29.20;99.90;;;;;;5014336;28;20474;-51
2023/08/09 10:07:45;;;;;;;15.98;4.55;;;29.10;99.90;;;;;;5012946;28;19913;-51
2023/08/09 10:10:12;;;;;;;23.35;6.40;;;29.10;99.90;;;;;;5013787;28;20125;-50
2023/08/09 10:12:52;;;;;;;15.27;4.07;;;29.10;99.90;;;;;;5013696;28;20065;-51
2023/08/09 10:15:23;;;;;;;16.55;5.10;;;29.10;99.90;;;;;;5013576;28;20026;-51
2023/08/09 10:17:52;;;;;;;12.95;4.13;;;29.10;99.90;;;;;;5013544;28;20033;-51
2023/08/09 10:20:20;;;;;;;14.48;3.92;;;29.10;99.90;;;;;;5013470;28;20065;-51
2023/08/09 10:22:47;;;;;;;;;;;29.10;99.90;;;;;;5013882;28;20026;-51
2023/08/09 10:25:13;;;;;;;17.13;3.92;;;29.20;99.90;;;;;;5013370;28;19905;-52
2023/08/09 10:27:53;;;;;;;15.05;4.88;;;29.20;99.90;;;;;;5013262;28;20026;-51
2023/08/09 10:30:25;;;;;;;22.40;4.20;;;29.20;99.90;;;;;;5013447;28;20014;-52
2023/08/09 10:32:58;;;;;;;19.83;5.72;;;29.20;99.90;;;;;;5013861;28;20030;-51
2023/08/09 10:35:43;;;;;;;14.75;4.00;;;29.30;99.90;;;;;;5013531;28;20025;-51
2023/08/09 10:38:13;;;;;;;22.13;4.05;;;29.30;99.90;;;;;;5013220;28;20032;-53
2023/08/09 10:40:41;;;;;;;14.10;4.63;;;29.30;99.90;;;;;;5013294;28;20028;-54
2023/08/09 10:43:08;;;;;;;13.90;3.33;;;29.20;99.90;;;;;;5013215;28;20030;-53
2023/08/09 10:45:34;;;;;;;18.30;3.97;;;29.20;99.90;;;;;;5013182;28;20025;-53
2023/08/09 10:48:47;;;;;;;20.43;4.33;;;29.30;99.90;;;;;;5013244;28;20171;-53
2023/08/09 10:51:13;;;;;;;15.73;4.15;;;29.30;99.90;;;;;;4955576;28;20513;-52
2023/08/09 10:54:00;;;;;;;12.85;3.38;;;29.30;99.90;;;;;;5008074;28;20117;-52
2023/08/09 10:56:46;;;;;;;21.33;5.18;;;29.30;99.90;;;;;;5013058;28;20101;-51
2023/08/09 10:59:19;;;;;;;13.07;3.35;;;29.30;99.90;;;;;;5012878;28;20030;-51
2023/08/09 11:01:46;;;;;;;13.25;3.90;;;29.30;99.90;;;;;;5012070;28;20541;-51
2023/08/09 11:04:14;;;;;;;14.30;3.53;;;29.30;99.90;;;;;;5011550;28;20052;-52
2023/08/09 11:06:45;;;;;;;19.50;3.60;;;29.30;99.90;;;;;;5012685;28;20040;-54
2023/08/09 11:09:23;;;;;;;18.80;3.53;;;29.30;99.90;;;;;;5012934;28;20022;-52
2023/08/09 11:11:50;;;;;;;17.63;4.32;;;29.30;99.90;;;;;;5012877;28;20105;-53
2023/08/09 11:14:21;;;;;;;15.10;4.05;;;29.30;99.90;;;;;;5012710;28;20041;-52
2023/08/09 11:16:48;;;;;;;24.08;4.30;;;29.30;99.90;;;;;;5012649;28;20069;-52
2023/08/09 11:19:18;;;;;;;28.42;4.30;;;29.30;99.90;;;;;;5012546;28;20045;-53
2023/08/09 11:21:53;;;;;;;11.88;3.88;;;29.30;99.90;;;;;;5012616;28;20041;-52
2023/08/09 11:24:21;;;;;;;15.85;3.85;;;29.20;99.90;;;;;;5012580;28;20466;-52
2023/08/09 11:26:52;;;;;;;17.20;4.53;;;29.30;99.90;;;;;;5012324;28;20109;-52
2023/08/09 11:29:19;;;;;;;15.48;3.22;;;29.30;99.90;;;;;;5012402;28;20040;-51
2023/08/09 11:31:50;;;;;;;13.75;4.88;;;29.30;99.90;;;;;;5012337;28;20033;-52
2023/08/09 11:34:18;;;;;;;19.33;3.85;;;29.30;99.90;;;;;;5012323;28;20105;-52
2023/08/09 11:36:46;;;;;;;16.75;4.15;;;29.30;99.90;;;;;;5012194;28;20029;-52
2023/08/09 11:39:16;;;;;;;23.17;4.43;;;29.30;99.90;;;;;;5012206;28;20231;-52
2023/08/09 11:41:44;;;;;;;19.33;4.38;;;29.40;99.90;;;;;;5012271;28;20036;-52
2023/08/09 11:44:13;;;;;;;14.65;3.88;;;29.40;99.90;;;;;;5012157;28;20043;-53
2023/08/09 11:46:42;;;;;;;19.00;4.95;;;29.40;99.90;;;;;;5011986;28;20034;-52
2023/08/09 11:49:08;;;;;;;16.13;4.03;;;29.40;99.90;;;;;;5012074;28;20022;-51
2023/08/09 11:51:35;;;;;;;20.13;7.93;;;29.40;99.90;;;;;;5012059;28;20397;-52
2023/08/09 11:54:02;;;;;;;19.73;5.53;;;29.40;99.90;;;;;;5012063;28;20018;-51
2023/08/09 11:56:33;;;;;;;27.90;10.85;;;29.40;99.90;;;;;;5012144;28;20128;-52
2023/08/09 11:59:01;;;;;;;16.17;4.57;;;29.40;99.90;;;;;;5012106;28;20389;-53
2023/08/09 12:01:31;;;;;;;17.55;4.53;;;29.40;99.90;;;;;;5011673;28;20050;-51
2023/08/09 12:03:59;;;;;;;16.48;5.38;;;29.40;99.90;;;;;;5011953;28;20022;-53
2023/08/09 12:06:51;;;;;;;12.57;3.55;;;29.40;99.90;;;;;;5010775;28;20046;-52
2023/08/09 12:09:35;;;;;;;17.08;3.47;;;29.40;99.90;;;;;;5011977;28;20026;-52
2023/08/09 12:12:14;;;;;;;22.25;5.00;;;29.40;99.90;;;;;;5012352;28;20033;-52
2023/08/09 12:14:53;;;;;;;20.33;5.13;;;29.30;99.90;;;;;;5014680;28;20029;-53
2023/08/09 12:17:21;;;;;;;17.20;4.85;;;29.40;99.90;;;;;;5015631;28;20029;-52
2023/08/09 12:19:48;;;;;;;24.30;6.30;;;29.40;99.90;;;;;;5015454;28;20037;-52
2023/08/09 12:22:14;;;;;;;17.73;5.63;;;29.40;99.90;;;;;;5015814;28;20026;-53
2023/08/09 12:24:43;;;;;;;16.13;5.07;;;29.40;99.90;;;;;;5015694;28;20073;-53
2023/08/09 12:27:09;;;;;;;14.77;4.80;;;29.40;99.90;;;;;;5015423;28;20064;-52
2023/08/09 12:29:35;;;;;;;18.30;6.18;;;29.40;99.90;;;;;;5015736;28;20014;-53
2023/08/09 12:32:03;;;;;;;16.75;5.97;;;29.40;99.90;;;;;;5014887;28;20037;-52
2023/08/09 12:34:29;;;;;;;14.50;4.40;;;29.40;99.90;;;;;;5015051;28;20026;-51
2023/08/09 12:36:56;;;;;;;16.30;3.78;;;29.50;99.90;;;;;;5014335;28;20097;-50
2023/08/09 12:39:22;;;;;;;18.63;4.13;;;29.60;99.90;;;;;;5015012;28;20104;-51
2023/08/09 12:41:47;;;;;;;11.13;3.85;;;29.60;99.90;;;;;;5015241;28;20541;-52
2023/08/09 12:44:13;;;;;;;16.52;4.57;;;29.60;99.90;;;;;;5014418;28;20029;-51